Time;durP1;ratioP1;P1;durP2;ratioP2;P2;SDS_P1;SDS_P2;PMS_P1;PMS_P2;Temp;Humidity;BMP_temperature;BMP_pressure;BME280_temperature;BME280_humidity;BME280_pressure;Samples;Min_cycle;Max_cycle;Signal;HPM_P1;HPM_P2
2024/04/22 00:01:49;;;;;;;;;;;;;;;20.75;41.34;100301.29;102999;1294;62508;-79
2024/04/22 00:04:15;;;;;;;;;;;;;;;20.75;41.44;100309.17;102778;1294;62655;-79
2024/04/22 00:06:43;;;;;;;;;;;;;;;20.75;41.48;100309.17;103117;1295;62190;-79
2024/04/22 00:09:09;;;;;;;;;;;;;;;20.75;41.38;100313.85;102812;1289;71098;-79
2024/04/22 00:11:35;;;;;;;;;;;;;;;20.75;41.38;100314.75;103125;1294;62867;-78
2024/04/22 00:14:00;;;;;;;;;;;;;;;20.75;41.37;100309.37;103085;1289;63158;-79
2024/04/22 00:16:26;;;;;;;;;;;;;;;20.75;41.41;100310.08;103004;1295;62111;-79
2024/04/22 00:18:52;;;;;;;;;;;;;;;20.75;41.33;100312.59;103008;1289;62344;-79
2024/04/22 00:21:17;;;;;;;;;;;;;;;20.75;41.37;100311.54;103130;1294;62230;-81
2024/04/22 00:23:43;;;;;;;;;;;;;;;20.74;41.37;100309.41;102939;1289;63341;-81
2024/04/22 00:26:08;;;;;;;;;;;;;;;20.75;41.39;100313.52;103086;1289;62222;-80
2024/04/22 00:28:34;;;;;;;;;;;;;;;20.75;41.43;100319.56;102749;1289;63362;-81
2024/04/22 00:30:59;;;;;;;;;;;;;;;20.74;41.34;100321.75;103099;1295;62257;-79
2024/04/22 00:33:25;;;;;;;;;;;;;;;20.74;41.53;100321.05;102824;1294;63307;-79
2024/04/22 00:35:57;;;;;;;;;;;;;;;20.74;41.40;100322.83;103085;1293;75917;-81
2024/04/22 00:38:24;;;;;;;;;;;;;;;20.74;41.42;100325.52;103004;1292;62189;-80
2024/04/22 00:40:49;;;;;;;;;;;;;;;20.74;41.36;100323.73;103004;1294;62136;-80
2024/04/22 00:43:15;;;;;;;;;;;;;;;20.74;41.46;100320.16;103079;1294;62277;-79
2024/04/22 00:45:41;;;;;;;;;;;;;;;20.74;41.51;100318.41;103117;1295;63573;-78
2024/04/22 00:48:07;;;;;;;;;;;;;;;20.73;41.43;100320.94;103062;1295;62199;-78
2024/04/22 00:50:32;;;;;;;;;;;;;;;20.74;41.33;100325.19;103126;1295;62158;-82
2024/04/22 00:52:58;;;;;;;;;;;;;;;20.73;41.32;100323.09;103157;1290;63419;-79
2024/04/22 00:55:24;;;;;;;;;;;;;;;20.73;41.47;100323.42;102764;1294;73569;-78
2024/04/22 00:57:49;;;;;;;;;;;;;;;20.73;41.36;100330.05;102937;1295;63267;-79
2024/04/22 01:00:15;;;;;;;;;;;;;;;20.74;41.49;100343.81;103104;1294;62213;-80
2024/04/22 01:02:41;;;;;;;;;;;;;;;20.73;41.37;100354.37;103003;1289;62360;-80
2024/04/22 01:05:07;;;;;;;;;;;;;;;20.74;41.42;100356.33;103062;1294;62258;-79
2024/04/22 01:07:32;;;;;;;;;;;;;;;20.73;41.43;100358.52;103040;1303;62156;-81
2024/04/22 01:09:59;;;;;;;;;;;;;;;20.73;41.58;100358.32;103040;1294;63382;-80
2024/04/22 01:12:25;;;;;;;;;;;;;;;20.73;41.40;100350.50;103047;1291;63471;-80
2024/04/22 01:14:51;;;;;;;;;;;;;;;20.72;41.55;100350.86;102714;1295;63345;-81
2024/04/22 01:17:16;;;;;;;;;;;;;;;20.73;41.51;100349.59;103141;1295;63443;-80
2024/04/22 01:19:43;;;;;;;;;;;;;;;20.72;41.51;100347.65;103081;1295;63302;-80
2024/04/22 01:22:08;;;;;;;;;;;;;;;20.72;41.62;100352.13;103084;1290;62191;-80
2024/04/22 01:24:34;;;;;;;;;;;;;;;20.72;41.53;100354.65;103135;1295;62185;-78
2024/04/22 01:26:59;;;;;;;;;;;;;;;20.72;41.50;100354.65;103110;1294;62197;-78
2024/04/22 01:29:26;;;;;;;;;;;;;;;20.72;41.52;100355.91;103045;1290;63494;-80
2024/04/22 01:31:55;;;;;;;;;;;;;;;20.72;41.39;100360.92;102952;1295;75283;-79
2024/04/22 01:34:20;;;;;;;;;;;;;;;20.72;41.57;100361.98;103037;1295;62258;-79
2024/04/22 01:36:46;;;;;;;;;;;;;;;20.72;41.50;100366.27;103122;1290;62197;-78
2024/04/22 01:39:12;;;;;;;;;;;;;;;20.72;41.43;100368.80;103110;1295;62216;-81
2024/04/22 01:41:38;;;;;;;;;;;;;;;20.72;41.51;100374.70;103108;1294;62701;-80
2024/04/22 01:44:03;;;;;;;;;;;;;;;20.72;41.52;100375.79;103147;1295;62289;-80
2024/04/22 01:46:29;;;;;;;;;;;;;;;20.72;41.48;100378.64;103115;1290;62117;-80
2024/04/22 01:48:54;;;;;;;;;;;;;;;20.72;41.50;100377.36;103088;1296;62114;-79
2024/04/22 01:51:20;;;;;;;;;;;;;;;20.72;41.43;100375.98;103101;1290;63468;-80
2024/04/22 01:53:46;;;;;;;;;;;;;;;20.72;41.56;100374.90;103193;1295;63590;-80
2024/04/22 01:56:11;;;;;;;;;;;;;;;20.72;41.67;100377.05;103179;1294;81332;-80
2024/04/22 01:58:37;;;;;;;;;;;;;;;20.72;41.45;100376.68;103010;1294;62045;-79
2024/04/22 02:01:07;;;;;;;;;;;;;;;20.71;41.67;100378.84;103115;1295;62702;-79
2024/04/22 02:03:33;;;;;;;;;;;;;;;20.71;41.63;100377.26;103002;1289;73507;-79
2024/04/22 02:05:58;;;;;;;;;;;;;;;20.72;41.55;100377.58;102988;1289;62853;-80
2024/04/22 02:08:26;;;;;;;;;;;;;;;20.71;41.56;100379.77;102723;1295;62242;-79
2024/04/22 02:10:51;;;;;;;;;;;;;;;20.71;41.61;100382.23;102984;1294;62200;-79
2024/04/22 02:13:17;;;;;;;;;;;;;;;20.71;41.61;100383.50;102977;1295;62206;-79
2024/04/22 02:15:43;;;;;;;;;;;;;;;20.71;41.66;100385.12;103063;1295;63420;-80
2024/04/22 02:18:08;;;;;;;;;;;;;;;20.71;41.80;100386.04;103075;1293;63329;-80
2024/04/22 02:20:34;;;;;;;;;;;;;;;20.71;41.65;100389.98;103014;1291;62201;-80
2024/04/22 02:23:00;;;;;;;;;;;;;;;20.71;41.80;100390.69;103001;1295;62225;-81
2024/04/22 02:25:26;;;;;;;;;;;;;;;20.70;41.71;100390.89;102594;1288;753948;-79
2024/04/22 02:27:53;;;;;;;;;;;;;;;20.70;41.61;100387.89;103079;1294;62196;-79
2024/04/22 02:30:19;;;;;;;;;;;;;;;20.70;41.66;100387.87;102794;1297;62245;-80
2024/04/22 02:32:44;;;;;;;;;;;;;;;20.71;41.71;100390.02;103097;1295;62171;-81
2024/04/22 02:35:10;;;;;;;;;;;;;;;20.70;41.70;100390.58;103118;1288;62200;-79
2024/04/22 02:37:35;;;;;;;;;;;;;;;20.70;41.75;100391.11;103126;1294;72250;-79
2024/04/22 02:40:01;;;;;;;;;;;;;;;20.70;41.67;100391.65;103002;1288;62158;-79
2024/04/22 02:42:27;;;;;;;;;;;;;;;20.70;41.69;100392.55;102945;1294;62216;-80
2024/04/22 02:44:52;;;;;;;;;;;;;;;20.70;41.64;100400.77;103019;1295;62229;-80
2024/04/22 02:47:18;;;;;;;;;;;;;;;20.69;41.65;100396.72;102975;1294;62284;-78
2024/04/22 02:49:43;;;;;;;;;;;;;;;20.70;41.84;100396.30;102717;1291;72462;-81
2024/04/22 02:52:09;;;;;;;;;;;;;;;20.70;41.73;100402.77;102776;1299;62206;-81
2024/04/22 02:54:34;;;;;;;;;;;;;;;20.70;41.77;100403.84;103056;1289;63498;-81
2024/04/22 02:57:00;;;;;;;;;;;;;;;20.70;41.77;100408.34;103115;1296;63527;-81
2024/04/22 02:59:26;;;;;;;;;;;;;;;20.70;41.85;100412.25;102998;1289;62207;-79
2024/04/22 03:01:51;;;;;;;;;;;;;;;20.70;41.82;100414.40;102989;1294;72287;-81
2024/04/22 03:04:17;;;;;;;;;;;;;;;20.69;41.64;100416.01;102986;1295;62205;-78
2024/04/22 03:06:42;;;;;;;;;;;;;;;20.69;41.78;100418.55;102983;1295;62220;-79
2024/04/22 03:09:08;;;;;;;;;;;;;;;20.69;41.72;100421.77;102779;1289;62199;-79
2024/04/22 03:11:34;;;;;;;;;;;;;;;20.69;41.69;100426.41;103180;1289;62202;-79
2024/04/22 03:13:59;;;;;;;;;;;;;;;20.69;41.76;100425.19;103079;1290;72356;-80
2024/04/22 03:16:25;;;;;;;;;;;;;;;20.69;41.76;100429.13;102955;1295;62143;-81
2024/04/22 03:18:51;;;;;;;;;;;;;;;20.69;41.86;100429.11;103058;1289;63449;-79
2024/04/22 03:21:16;;;;;;;;;;;;;;;20.68;41.85;100431.48;103104;1289;62823;-79
2024/04/22 03:23:42;;;;;;;;;;;;;;;20.68;41.87;100434.85;103121;1299;62228;-81
2024/04/22 03:26:07;;;;;;;;;;;;;;;20.69;41.91;100438.58;103142;1295;62213;-79
2024/04/22 03:28:34;;;;;;;;;;;;;;;20.68;41.82;100440.59;102964;1294;75345;-80
2024/04/22 03:31:00;;;;;;;;;;;;;;;20.68;41.87;100442.71;103056;1295;62197;-80
2024/04/22 03:33:25;;;;;;;;;;;;;;;20.68;41.87;100444.53;103102;1294;62127;-79
2024/04/22 03:35:51;;;;;;;;;;;;;;;20.68;42.02;100445.61;103101;1289;63235;-80
2024/04/22 03:38:16;;;;;;;;;;;;;;;20.68;41.82;100451.17;103038;1289;62515;-79
2024/04/22 03:40:42;;;;;;;;;;;;;;;20.67;41.83;100456.59;102955;1294;75294;-82
2024/04/22 03:43:09;;;;;;;;;;;;;;;20.67;41.89;100461.23;103043;1289;63792;-80
2024/04/22 03:45:35;;;;;;;;;;;;;;;20.66;42.02;100468.27;103113;1289;63224;-81
2024/04/22 03:50:44;;;;;;;;;;;;;;;20.66;41.91;100477.80;102938;1289;75307;-82
2024/04/22 03:53:10;;;;;;;;;;;;;;;20.65;41.92;100487.67;103083;1294;62235;-81
2024/04/22 03:55:37;;;;;;;;;;;;;;;20.65;42.05;100488.94;103035;1289;62383;-79
2024/04/22 03:58:02;;;;;;;;;;;;;;;20.64;41.88;100489.15;102950;1294;63411;-80
2024/04/22 04:00:28;;;;;;;;;;;;;;;20.64;41.96;100490.59;102942;1295;62225;-80
2024/04/22 04:02:54;;;;;;;;;;;;;;;20.64;42.00;100489.02;103252;1294;62201;-81
2024/04/22 04:05:19;;;;;;;;;;;;;;;20.63;41.95;100487.98;103013;1289;62184;-82
2024/04/22 04:07:45;;;;;;;;;;;;;;;20.63;41.85;100488.88;103022;1289;63278;-82
2024/04/22 04:10:10;;;;;;;;;;;;;;;20.63;41.89;100493.02;103066;1294;62191;-80
2024/04/22 04:12:36;;;;;;;;;;;;;;;20.63;41.93;100493.36;103072;1294;62207;-80
2024/04/22 04:15:02;;;;;;;;;;;;;;;20.63;41.82;100491.42;102752;1289;64286;-81
2024/04/22 04:17:27;;;;;;;;;;;;;;;20.62;41.95;100490.18;103092;1294;62453;-80
2024/04/22 04:19:53;;;;;;;;;;;;;;;20.62;41.79;100495.94;102954;1293;63308;-81
2024/04/22 04:22:18;;;;;;;;;;;;;;;20.60;41.82;100501.59;102955;1294;62257;-79
2024/04/22 04:24:44;;;;;;;;;;;;;;;20.58;41.78;100507.10;102937;1295;62190;-80
2024/04/22 04:27:10;;;;;;;;;;;;;;;20.57;41.80;100512.21;103057;1290;62514;-79
2024/04/22 04:29:35;;;;;;;;;;;;;;;20.53;41.84;100513.89;103129;1294;63373;-80
2024/04/22 04:32:01;;;;;;;;;;;;;;;20.51;41.76;100516.23;103046;1294;62142;-80
2024/04/22 04:34:26;;;;;;;;;;;;;;;20.49;41.81;100518.52;103029;1289;62414;-80
2024/04/22 04:36:52;;;;;;;;;;;;;;;20.48;41.79;100521.67;103089;1293;62698;-80
2024/04/22 04:39:17;;;;;;;;;;;;;;;20.47;41.77;100523.52;103014;1289;62276;-80
2024/04/22 04:41:43;;;;;;;;;;;;;;;20.46;41.83;100525.88;103201;1291;62293;-80
2024/04/22 04:44:09;;;;;;;;;;;;;;;20.45;41.86;100531.31;103072;1289;62223;-80
2024/04/22 04:46:35;;;;;;;;;;;;;;;20.43;41.75;100535.91;103150;1289;62347;-80
2024/04/22 04:49:00;;;;;;;;;;;;;;;20.42;41.86;100538.36;103313;1289;62137;-80
2024/04/22 04:51:26;;;;;;;;;;;;;;;20.40;41.85;100544.55;103433;1289;62206;-80
2024/04/22 04:53:51;;;;;;;;;;;;;;;20.38;41.76;100548.09;103565;1290;62191;-80
2024/04/22 04:56:17;;;;;;;;;;;;;;;20.36;41.91;100548.27;103851;1289;62108;-81
2024/04/22 04:58:42;;;;;;;;;;;;;;;20.33;41.90;100550.36;103545;1289;62287;-81
2024/04/22 05:01:08;;;;;;;;;;;;;;;20.32;41.92;100552.48;103525;1294;62127;-82
2024/04/22 05:03:33;;;;;;;;;;;;;;;20.30;41.99;100555.63;103794;1289;62120;-80
2024/04/22 05:05:59;;;;;;;;;;;;;;;20.29;41.96;100561.79;103933;1292;62191;-81
2024/04/22 05:08:49;;;;;;;;;;;;;;;20.28;41.96;100565.42;104108;1289;62152;-82
2024/04/22 05:11:15;;;;;;;;;;;;;;;20.28;41.85;100570.10;104079;1290;72454;-79
2024/04/22 05:13:42;;;;;;;;;;;;;;;20.26;41.91;100569.27;104060;1292;62119;-79
2024/04/22 05:16:08;;;;;;;;;;;;;;;20.26;42.10;100571.98;104064;1289;60229;-81
2024/04/22 05:18:34;;;;;;;;;;;;;;;20.26;42.02;100570.02;104276;1289;62206;-78
2024/04/22 05:20:59;;;;;;;;;;;;;;;20.24;41.92;100571.95;104224;1294;62085;-78
2024/04/22 05:23:25;;;;;;;;;;;;;;;20.21;42.14;100572.69;104229;1289;62207;-79
2024/04/22 05:25:51;;;;;;;;;;;;;;;20.21;42.11;100574.34;104042;1289;62385;-80
2024/04/22 05:28:16;;;;;;;;;;;;;;;20.22;42.15;100575.70;104107;1292;62340;-79
2024/04/22 05:30:42;;;;;;;;;;;;;;;20.24;42.11;100580.90;104353;1289;60206;-80
2024/04/22 05:36:09;;;;;;;;;;;;;;;20.25;42.09;100583.11;104145;1291;62199;-79
2024/04/22 05:36:11;;;;;;;;;;;;;;;20.27;42.11;100585.48;104181;1290;76283;-79
2024/04/22 05:38:41;;;;;;;;;;;;;;;20.29;42.15;100590.56;104127;1290;62183;-78
2024/04/22 05:41:06;;;;;;;;;;;;;;;20.31;42.26;100595.22;104192;1289;64126;-78
2024/04/22 05:43:32;;;;;;;;;;;;;;;20.33;42.10;100601.52;104137;1289;62254;-78
2024/04/22 05:45:57;;;;;;;;;;;;;;;20.35;42.18;100606.60;104129;1289;62043;-80
2024/04/22 05:48:23;;;;;;;;;;;;;;;20.35;42.15;100611.02;104126;1289;62257;-80
2024/04/22 05:50:48;;;;;;;;;;;;;;;20.36;42.10;100611.36;104330;1289;62097;-79
2024/04/22 05:53:14;;;;;;;;;;;;;;;20.33;42.12;100619.60;104229;1289;62073;-79
2024/04/22 05:55:41;;;;;;;;;;;;;;;20.30;42.25;100623.05;104033;1289;63318;-79
2024/04/22 05:58:06;;;;;;;;;;;;;;;20.27;42.26;100629.83;104096;1289;62364;-79
2024/04/22 06:00:32;;;;;;;;;;;;;;;20.25;42.27;100635.46;104181;1289;62137;-78
2024/04/22 06:02:58;;;;;;;;;;;;;;;20.25;42.32;100636.73;104449;1289;62873;-79
2024/04/22 06:05:24;;;;;;;;;;;;;;;20.24;42.30;100633.60;104245;1294;62134;-80
2024/04/22 06:07:50;;;;;;;;;;;;;;;20.23;42.50;100637.04;104715;1291;62194;-80
2024/04/22 06:10:16;;;;;;;;;;;;;;;20.23;42.41;100639.98;104431;1289;62133;-79
2024/04/22 06:12:41;;;;;;;;;;;;;;;20.20;42.47;100640.11;104411;1291;62051;-79
2024/04/22 06:15:07;;;;;;;;;;;;;;;20.19;42.36;100646.65;104284;1289;62179;-78
2024/04/22 06:17:33;;;;;;;;;;;;;;;20.17;42.41;100651.60;104103;1291;62812;-78
2024/04/22 06:19:58;;;;;;;;;;;;;;;20.16;42.44;100657.91;104566;1294;62196;-79
2024/04/22 06:22:24;;;;;;;;;;;;;;;20.16;42.40;100662.40;104475;1289;62283;-79
2024/04/22 06:24:51;;;;;;;;;;;;;;;20.14;42.46;100671.11;104291;1294;64087;-79
2024/04/22 06:27:17;;;;;;;;;;;;;;;20.13;42.45;100675.84;104103;1289;62150;-79
2024/04/22 06:29:42;;;;;;;;;;;;;;;20.13;42.61;100682.11;104406;1291;62126;-80
2024/04/22 06:32:08;;;;;;;;;;;;;;;20.10;42.50;100682.09;104171;1289;62053;-80
2024/04/22 06:34:34;;;;;;;;;;;;;;;20.08;42.62;100686.50;104226;1288;62129;-79
2024/04/22 06:36:59;;;;;;;;;;;;;;;20.04;42.42;100696.08;104517;1290;60010;-79
2024/04/22 06:39:26;;;;;;;;;;;;;;;20.01;42.54;100697.37;104485;1289;62215;-79
2024/04/22 06:41:51;;;;;;;;;;;;;;;20.01;42.70;100702.92;104453;1289;72313;-79
2024/04/22 06:44:18;;;;;;;;;;;;;;;20.02;42.52;100703.91;104440;1289;74994;-79
2024/04/22 06:46:43;;;;;;;;;;;;;;;20.05;42.54;100709.98;104308;1289;63376;-78
2024/04/22 06:49:09;;;;;;;;;;;;;;;20.07;42.56;100711.08;104451;1289;62220;-78
2024/04/22 06:51:34;;;;;;;;;;;;;;;20.10;42.62;100714.27;104515;1289;62107;-79
2024/04/22 06:54:00;;;;;;;;;;;;;;;20.12;42.58;100713.27;104415;1294;62090;-79
2024/04/22 06:56:26;;;;;;;;;;;;;;;20.13;42.53;100712.63;104259;1289;75199;-80
2024/04/22 06:58:52;;;;;;;;;;;;;;;20.15;42.57;100709.65;104185;1289;62105;-79
2024/04/22 07:01:17;;;;;;;;;;;;;;;20.17;42.65;100712.32;104096;1289;63850;-79
2024/04/22 07:03:43;;;;;;;;;;;;;;;20.19;42.75;100716.83;103992;1294;62053;-81
2024/04/22 07:06:11;;;;;;;;;;;;;;;20.22;42.75;100719.02;104171;1289;62240;-80
2024/04/22 07:08:37;;;;;;;;;;;;;;;20.24;42.85;100721.02;103975;1289;62214;-81
2024/04/22 07:11:03;;;;;;;;;;;;;;;20.25;42.82;100726.45;104072;1289;62100;-81
2024/04/22 07:13:28;;;;;;;;;;;;;;;20.27;42.86;100733.70;103761;1289;62194;-80
2024/04/22 07:15:54;;;;;;;;;;;;;;;20.28;42.76;100734.84;103747;1291;62222;-80
2024/04/22 07:18:19;;;;;;;;;;;;;;;20.29;42.71;100737.09;103638;1294;75209;-80
2024/04/22 07:20:45;;;;;;;;;;;;;;;20.31;42.84;100740.04;103701;1292;63306;-80
2024/04/22 07:23:11;;;;;;;;;;;;;;;20.32;42.94;100743.90;103778;1289;62188;-80
2024/04/22 07:25:38;;;;;;;;;;;;;;;20.32;42.75;100746.36;103758;1289;63324;-81
2024/04/22 07:28:03;;;;;;;;;;;;;;;20.33;42.97;100748.26;103607;1294;62207;-80
2024/04/22 07:30:29;;;;;;;;;;;;;;;20.34;42.92;100750.71;103718;1289;62117;-81
2024/04/22 07:32:55;;;;;;;;;;;;;;;20.35;42.81;100747.79;103808;1289;62207;-80
2024/04/22 07:35:20;;;;;;;;;;;;;;;20.35;42.82;100750.63;103557;1292;62258;-80
2024/04/22 07:37:47;;;;;;;;;;;;;;;20.36;42.95;100750.58;103506;1291;61996;-80
2024/04/22 07:40:13;;;;;;;;;;;;;;;20.36;42.92;100757.52;103750;1292;62635;-81
2024/04/22 07:42:43;;;;;;;;;;;;;;;20.36;42.89;100763.23;103591;1292;62179;-80
2024/04/22 07:45:08;;;;;;;;;;;;;;;20.36;42.96;100768.40;103476;1291;62025;-79
2024/04/22 07:47:34;;;;;;;;;;;;;;;20.36;42.81;100771.11;103504;1292;62286;-80
2024/04/22 07:49:59;;;;;;;;;;;;;;;20.37;42.92;100775.52;103439;1292;62214;-79
2024/04/22 07:52:25;;;;;;;;;;;;;;;20.37;43.04;100778.41;103657;1292;62245;-80
2024/04/22 07:54:51;;;;;;;;;;;;;;;20.36;43.05;100783.44;103606;1292;62224;-81
2024/04/22 07:57:16;;;;;;;;;;;;;;;20.30;42.90;100790.31;103853;1292;62325;-81
2024/04/22 07:59:43;;;;;;;;;;;;;;;20.16;43.06;100792.81;103663;1291;72376;-79
2024/04/22 08:02:09;;;;;;;;;;;;;;;20.09;43.07;100794.57;103647;1292;63003;-79
2024/04/22 08:04:34;;;;;;;;;;;;;;;20.03;43.19;100800.46;103624;1295;62208;-80
2024/04/22 08:07:00;;;;;;;;;;;;;;;20.02;43.13;100801.04;103733;1292;63472;-79
2024/04/22 08:09:26;;;;;;;;;;;;;;;20.04;43.29;100803.11;103687;1294;62227;-79
2024/04/22 08:11:54;;;;;;;;;;;;;;;20.05;43.24;100804.43;103764;1291;62388;-80
2024/04/22 08:14:19;;;;;;;;;;;;;;;20.08;43.24;100806.78;104024;1292;75079;-78
2024/04/22 08:16:45;;;;;;;;;;;;;;;20.12;43.37;100808.14;104436;1292;62115;-78
2024/04/22 08:19:11;;;;;;;;;;;;;;;20.17;43.54;100811.92;103808;1292;62131;-79
2024/04/22 08:21:36;;;;;;;;;;;;;;;20.20;43.72;100818.98;104026;1291;62247;-78
2024/04/22 08:24:02;;;;;;;;;;;;;;;20.26;43.97;100825.95;103891;1297;62291;-78
2024/04/22 08:26:27;;;;;;;;;;;;;;;20.30;44.10;100832.48;103907;1297;62039;-79
2024/04/22 08:28:53;;;;;;;;;;;;;;;20.34;44.09;100836.67;103561;1291;62219;-80
2024/04/22 08:31:18;;;;;;;;;;;;;;;20.37;44.29;100840.02;103635;1292;64439;-79
2024/04/22 08:33:44;;;;;;;;;;;;;;;20.38;44.08;100846.37;104031;1294;62396;-78
2024/04/22 08:36:10;;;;;;;;;;;;;;;20.39;44.18;100850.80;103704;1289;62060;-78
2024/04/22 08:38:36;;;;;;;;;;;;;;;20.39;44.05;100852.95;104211;1294;62140;-78
2024/04/22 08:41:03;;;;;;;;;;;;;;;20.39;43.95;100856.91;104061;1288;63126;-80
2024/04/22 08:43:29;;;;;;;;;;;;;;;20.36;43.99;100866.41;103822;1292;62217;-80
2024/04/22 08:45:55;;;;;;;;;;;;;;;20.33;44.02;100872.67;103758;1292;62100;-80
2024/04/22 08:48:20;;;;;;;;;;;;;;;20.30;43.90;100880.20;103524;1291;75204;-80
2024/04/22 08:50:48;;;;;;;;;;;;;;;20.23;43.96;100887.95;103634;1289;62632;-79
2024/04/22 08:53:13;;;;;;;;;;;;;;;20.16;43.86;100892.92;103572;1289;62211;-78
2024/04/22 08:55:39;;;;;;;;;;;;;;;20.11;44.01;100895.74;103780;1294;62221;-81
2024/04/22 08:58:05;;;;;;;;;;;;;;;20.08;44.00;100899.83;103628;1289;62252;-79
2024/04/22 09:00:30;;;;;;;;;;;;;;;20.05;44.09;100907.55;103761;1289;62139;-81
2024/04/22 09:02:56;;;;;;;;;;;;;;;20.04;44.06;100909.06;104504;1289;62105;-78
2024/04/22 09:05:22;;;;;;;;;;;;;;;20.03;44.08;100913.05;104004;1289;62086;-77
2024/04/22 09:07:53;;;;;;;;;;;;;;;20.03;43.89;100913.56;104071;1294;62073;-78
2024/04/22 09:10:19;;;;;;;;;;;;;;;20.04;44.07;100915.85;106151;1289;75293;-78
2024/04/22 09:13:01;;;;;;;;;;;;;;;20.04;44.19;100920.85;106229;1289;60102;-82
2024/04/22 09:15:27;;;;;;;;;;;;;;;20.05;44.11;100923.41;104354;1291;62145;-78
2024/04/22 09:17:53;;;;;;;;;;;;;;;20.06;44.22;100920.84;103763;1291;62159;-78
2024/04/22 09:20:22;;;;;;;;;;;;;;;20.08;44.17;100921.29;103809;1289;62197;-79
2024/04/22 09:22:48;;;;;;;;;;;;;;;20.09;44.09;100925.29;103986;1291;62121;-80
2024/04/22 09:25:14;;;;;;;;;;;;;;;20.12;44.07;100924.28;103839;1289;62127;-78
2024/04/22 09:27:41;;;;;;;;;;;;;;;20.12;44.00;100926.61;103681;1289;62188;-78
2024/04/22 09:30:08;;;;;;;;;;;;;;;20.12;43.92;100927.65;104091;1289;62096;-78
2024/04/22 09:32:33;;;;;;;;;;;;;;;20.06;43.95;100928.02;104058;1290;62114;-78
2024/04/22 09:35:05;;;;;;;;;;;;;;;20.03;44.03;100931.25;103729;1289;62833;-77
2024/04/22 09:37:32;;;;;;;;;;;;;;;20.03;44.06;100935.16;103701;1290;72416;-79
2024/04/22 09:39:58;;;;;;;;;;;;;;;20.02;44.15;100937.55;103684;1289;75260;-80
2024/04/22 09:42:24;;;;;;;;;;;;;;;20.02;43.95;100939.92;103924;1290;62381;-80
2024/04/22 09:44:49;;;;;;;;;;;;;;;20.01;43.89;100946.75;103648;1289;62190;-80
2024/04/22 09:47:15;;;;;;;;;;;;;;;20.00;43.87;100949.48;103934;1293;62264;-80
2024/04/22 09:49:40;;;;;;;;;;;;;;;20.00;43.94;100952.70;103784;1294;62213;-81
2024/04/22 09:52:06;;;;;;;;;;;;;;;19.99;43.89;100951.34;104065;1289;75362;-82
2024/04/22 09:54:31;;;;;;;;;;;;;;;19.99;43.98;100953.67;104780;1289;60384;-79
2024/04/22 09:56:57;;;;;;;;;;;;;;;19.99;43.86;100955.13;104480;1289;62146;-78
2024/04/22 09:59:23;;;;;;;;;;;;;;;19.99;43.86;100956.02;104202;1289;62191;-79
2024/04/22 10:01:48;;;;;;;;;;;;;;;19.99;43.94;100956.73;104211;1289;62109;-80
2024/04/22 10:04:14;;;;;;;;;;;;;;;19.99;43.97;100954.56;104369;1294;75226;-81
2024/04/22 10:06:40;;;;;;;;;;;;;;;19.99;43.90;100957.97;104525;1289;62203;-78
2024/04/22 10:09:06;;;;;;;;;;;;;;;19.99;44.06;100956.91;104030;1289;62283;-78
2024/04/22 10:11:31;;;;;;;;;;;;;;;19.99;43.96;100955.16;103824;1289;59655;-78
2024/04/22 10:14:14;;;;;;;;;;;;;;;19.98;44.02;100956.77;104180;1289;62111;-80
2024/04/22 10:16:40;;;;;;;;;;;;;;;19.98;43.91;100957.53;104398;1289;62070;-79
2024/04/22 10:19:06;;;;;;;;;;;;;;;19.97;43.94;100963.11;104214;1289;62073;-79
2024/04/22 10:21:32;;;;;;;;;;;;;;;19.97;43.95;100963.85;104457;1289;60166;-79
2024/04/22 10:23:58;;;;;;;;;;;;;;;19.96;43.98;100968.34;104314;1291;62133;-80
2024/04/22 10:26:24;;;;;;;;;;;;;;;19.95;43.85;100966.41;104307;1289;62206;-79
2024/04/22 10:28:50;;;;;;;;;;;;;;;19.95;43.89;100970.35;104385;1289;60545;-79
2024/04/22 10:31:21;;;;;;;;;;;;;;;19.94;43.80;100973.48;104376;1289;60135;-79
2024/04/22 10:33:47;;;;;;;;;;;;;;;19.93;43.89;100976.73;104068;1289;72424;-79
2024/04/22 10:36:13;;;;;;;;;;;;;;;19.93;43.83;100979.06;104099;1293;62184;-79
2024/04/22 10:38:38;;;;;;;;;;;;;;;19.92;43.97;100982.48;103781;1289;62231;-80
2024/04/22 10:41:04;;;;;;;;;;;;;;;19.92;43.80;100983.08;103609;1289;62159;-81
2024/04/22 10:43:30;;;;;;;;;;;;;;;19.91;43.87;100984.33;103537;1291;62187;-80
2024/04/22 10:45:56;;;;;;;;;;;;;;;19.91;43.75;100989.40;103248;1289;62203;-80
2024/04/22 10:48:22;;;;;;;;;;;;;;;19.89;43.74;100995.73;103456;1292;76320;-80
2024/04/22 10:50:47;;;;;;;;;;;;;;;19.88;43.73;100995.27;104034;1289;62207;-80
2024/04/22 10:53:13;;;;;;;;;;;;;;;19.88;43.64;100998.35;103546;1289;62194;-81
2024/04/22 10:55:39;;;;;;;;;;;;;;;19.86;43.74;100997.01;103787;1292;62165;-80
2024/04/22 10:58:04;;;;;;;;;;;;;;;19.84;43.60;100997.13;103687;1289;62207;-80
2024/04/22 11:00:30;;;;;;;;;;;;;;;19.82;43.57;100999.38;104057;1290;62208;-80
2024/04/22 11:02:56;;;;;;;;;;;;;;;19.80;43.71;100998.95;103965;1289;61928;-81
2024/04/22 11:05:22;;;;;;;;;;;;;;;19.80;43.83;101002.53;104069;1289;62183;-79
2024/04/22 11:07:47;;;;;;;;;;;;;;;19.80;43.74;101008.27;104172;1289;62164;-79
2024/04/22 11:10:13;;;;;;;;;;;;;;;19.79;43.70;101005.09;103931;1289;62156;-81
2024/04/22 11:12:38;;;;;;;;;;;;;;;19.80;43.62;101009.86;104034;1290;82545;-80
2024/04/22 11:15:04;;;;;;;;;;;;;;;19.80;43.76;101011.13;104200;1289;61965;-80
2024/04/22 11:17:29;;;;;;;;;;;;;;;19.80;43.80;101011.65;104370;1290;62388;-81
2024/04/22 11:20:05;;;;;;;;;;;;;;;19.80;43.70;101013.09;104495;1291;62163;-80
2024/04/22 11:22:31;;;;;;;;;;;;;;;19.81;43.73;101013.05;104671;1289;76338;-80
2024/04/22 11:24:56;;;;;;;;;;;;;;;19.81;43.72;101010.02;104864;1289;62201;-80
2024/04/22 11:27:22;;;;;;;;;;;;;;;19.80;43.88;101010.58;104350;1289;62215;-81
2024/04/22 11:29:47;;;;;;;;;;;;;;;19.81;43.81;101015.20;104473;1289;61998;-80
2024/04/22 11:32:13;;;;;;;;;;;;;;;19.81;43.81;101014.13;104143;1289;60104;-79
2024/04/22 11:34:39;;;;;;;;;;;;;;;19.82;43.69;101020.10;104357;1290;62084;-80
2024/04/22 11:37:05;;;;;;;;;;;;;;;19.82;43.68;101019.23;104155;1294;62076;-81
2024/04/22 11:39:30;;;;;;;;;;;;;;;19.82;43.85;101018.31;104258;1289;62198;-80
2024/04/22 11:41:56;;;;;;;;;;;;;;;19.83;43.78;101020.96;104206;1289;62101;-79
2024/04/22 11:44:22;;;;;;;;;;;;;;;19.84;43.76;101024.67;104229;1292;62123;-79
2024/04/22 11:46:48;;;;;;;;;;;;;;;19.83;43.77;101022.02;104361;1289;60176;-81
2024/04/22 11:49:13;;;;;;;;;;;;;;;19.83;43.67;101026.09;104474;1289;62076;-80
2024/04/22 11:51:39;;;;;;;;;;;;;;;19.83;43.72;101025.20;104025;1294;62185;-79
2024/04/22 11:54:04;;;;;;;;;;;;;;;19.84;43.75;101023.20;104177;1289;61110;-80
2024/04/22 11:56:35;;;;;;;;;;;;;;;19.84;43.67;101023.04;104155;1289;62737;-80
2024/04/22 11:59:00;;;;;;;;;;;;;;;19.84;43.62;101022.86;104441;1289;61548;-81
2024/04/22 12:01:26;;;;;;;;;;;;;;;19.84;43.71;101023.20;104314;1289;62152;-80
2024/04/22 12:03:51;;;;;;;;;;;;;;;19.81;43.62;101023.38;104395;1289;62408;-81
2024/04/22 12:06:17;;;;;;;;;;;;;;;19.79;43.67;101025.64;104054;1289;62273;-80
2024/04/22 12:08:42;;;;;;;;;;;;;;;19.79;43.59;101027.40;104394;1290;63818;-79
2024/04/22 12:11:08;;;;;;;;;;;;;;;19.81;43.62;101028.77;104183;1291;60390;-80
2024/04/22 12:13:34;;;;;;;;;;;;;;;19.80;43.68;101034.50;104562;1289;62161;-80
2024/04/22 12:15:59;;;;;;;;;;;;;;;19.80;43.76;101036.64;104418;1289;62189;-80
2024/04/22 12:18:25;;;;;;;;;;;;;;;19.82;43.72;101039.96;104757;1292;62194;-80
2024/04/22 12:20:50;;;;;;;;;;;;;;;19.83;43.62;101037.94;104985;1293;62254;-80
2024/04/22 12:23:16;;;;;;;;;;;;;;;19.84;43.57;101037.52;104690;1291;61951;-80